sensor_id;sensor_type;location;lat;lon;timestamp;noise_LAeq;noise_LA_min;noise_LA_max;noise_LA01;noise_LA95
73663;Laerm;61956;52.540;13.382;2023-04-08T00:00:13;59.96;57.88;62.45;;
73663;Laerm;61956;52.540;13.382;2023-04-08T00:02:42;61.81;56.55;79.59;;
73663;Laerm;61956;52.540;13.382;2023-04-08T00:05:12;60.09;58.18;71.27;;
73663;Laerm;61956;52.540;13.382;2023-04-08T00:07:41;60.30;58.19;63.04;;
73663;Laerm;61956;52.540;13.382;2023-04-08T00:10:11;60.57;58.72;64.23;;
73663;Laerm;61956;52.540;13.382;2023-04-08T00:12:40;60.38;55.19;63.05;;
73663;Laerm;61956;52.540;13.382;2023-04-08T00:15:12;60.34;58.44;63.75;;
73663;Laerm;61956;52.540;13.382;2023-04-08T00:17:41;60.10;55.56;66.26;;
73663;Laerm;61956;52.540;13.382;2023-04-08T00:20:12;60.00;57.73;62.31;;
73663;Laerm;61956;52.540;13.382;2023-04-08T00:22:41;60.11;58.01;62.86;;
73663;Laerm;61956;52.540;13.382;2023-04-08T00:25:10;60.16;58.30;62.87;;
73663;Laerm;61956;52.540;13.382;2023-04-08T00:27:40;60.03;57.48;64.66;;
73663;Laerm;61956;52.540;13.382;2023-04-08T00:30:13;60.04;57.00;62.44;;
73663;Laerm;61956;52.540;13.382;2023-04-08T00:32:45;59.86;57.85;63.48;;
73663;Laerm;61956;52.540;13.382;2023-04-08T00:35:14;60.00;57.97;62.47;;
73663;Laerm;61956;52.540;13.382;2023-04-08T00:40:13;54.66;52.37;57.72;;
73663;Laerm;61956;52.540;13.382;2023-04-08T00:42:42;54.92;52.29;59.50;;
73663;Laerm;61956;52.540;13.382;2023-04-08T00:45:14;55.01;52.38;62.84;;
73663;Laerm;61956;52.540;13.382;2023-04-08T00:47:43;55.13;52.59;58.02;;
73663;Laerm;61956;52.540;13.382;2023-04-08T00:50:18;65.26;50.31;72.99;;
73663;Laerm;61956;52.540;13.382;2023-04-08T00:52:47;55.38;52.44;69.48;;
73663;Laerm;61956;52.540;13.382;2023-04-08T00:55:16;55.43;52.64;58.36;;
73663;Laerm;61956;52.540;13.382;2023-04-08T00:57:46;55.27;52.88;59.17;;
73663;Laerm;61956;52.540;13.382;2023-04-08T01:00:19;55.29;52.96;58.20;;
73663;Laerm;61956;52.540;13.382;2023-04-08T01:02:58;55.52;52.81;58.75;;
73663;Laerm;61956;52.540;13.382;2023-04-08T01:05:41;55.91;53.71;58.87;;
73663;Laerm;61956;52.540;13.382;2023-04-08T01:08:15;55.86;53.84;60.05;;
73663;Laerm;61956;52.540;13.382;2023-04-08T01:10:50;55.80;53.80;58.34;;
73663;Laerm;61956;52.540;13.382;2023-04-08T01:13:25;55.89;53.92;58.84;;
73663;Laerm;61956;52.540;13.382;2023-04-08T01:15:58;55.89;54.12;58.26;;
73663;Laerm;61956;52.540;13.382;2023-04-08T01:18:29;55.97;54.06;59.63;;
73663;Laerm;61956;52.540;13.382;2023-04-08T01:21:01;55.98;54.38;58.06;;
73663;Laerm;61956;52.540;13.382;2023-04-08T01:23:43;56.13;54.22;64.99;;
73663;Laerm;61956;52.540;13.382;2023-04-08T01:26:28;56.19;54.48;58.71;;
73663;Laerm;61956;52.540;13.382;2023-04-08T01:29:01;56.09;54.18;59.55;;
73663;Laerm;61956;52.540;13.382;2023-04-08T01:31:32;55.79;54.01;58.19;;
73663;Laerm;61956;52.540;13.382;2023-04-08T01:34:03;55.89;54.17;60.87;;
73663;Laerm;61956;52.540;13.382;2023-04-08T01:36:36;56.04;54.45;59.28;;
73663;Laerm;61956;52.540;13.382;2023-04-08T01:39:07;56.07;54.50;58.15;;
73663;Laerm;61956;52.540;13.382;2023-04-08T01:41:40;56.63;54.74;59.45;;
73663;Laerm;61956;52.540;13.382;2023-04-08T01:44:14;57.00;54.92;67.95;;
73663;Laerm;61956;52.540;13.382;2023-04-08T01:46:45;57.17;54.62;60.94;;
73663;Laerm;61956;52.540;13.382;2023-04-08T01:49:17;56.78;54.61;61.02;;
73663;Laerm;61956;52.540;13.382;2023-04-08T01:51:48;56.88;54.75;59.98;;
73663;Laerm;61956;52.540;13.382;2023-04-08T01:54:18;56.94;54.69;62.73;;
73663;Laerm;61956;52.540;13.382;2023-04-08T01:56:52;56.88;54.68;60.73;;
73663;Laerm;61956;52.540;13.382;2023-04-08T01:59:27;56.88;54.60;60.03;;
73663;Laerm;61956;52.540;13.382;2023-04-08T02:01:59;56.77;54.87;59.54;;
73663;Laerm;61956;52.540;13.382;2023-04-08T02:04:30;56.91;54.96;60.47;;
73663;Laerm;61956;52.540;13.382;2023-04-08T02:07:00;56.91;54.54;59.71;;
73663;Laerm;61956;52.540;13.382;2023-04-08T02:09:30;58.32;54.51;62.16;;
73663;Laerm;61956;52.540;13.382;2023-04-08T02:12:02;58.18;55.05;64.38;;
73663;Laerm;61956;52.540;13.382;2023-04-08T02:14:31;57.78;55.26;61.34;;
73663;Laerm;61956;52.540;13.382;2023-04-08T02:17:12;57.96;55.22;61.41;;
73663;Laerm;61956;52.540;13.382;2023-04-08T02:19:55;58.23;55.14;62.90;;
73663;Laerm;61956;52.540;13.382;2023-04-08T02:22:37;57.42;54.80;60.52;;
73663;Laerm;61956;52.540;13.382;2023-04-08T02:25:12;57.98;55.29;61.26;;
73663;Laerm;61956;52.540;13.382;2023-04-08T02:27:45;57.96;55.06;61.32;;
73663;Laerm;61956;52.540;13.382;2023-04-08T02:30:16;57.95;55.27;61.03;;
73663;Laerm;61956;52.540;13.382;2023-04-08T02:32:47;57.90;55.33;61.32;;
73663;Laerm;61956;52.540;13.382;2023-04-08T02:35:19;57.84;55.49;60.79;;
73663;Laerm;61956;52.540;13.382;2023-04-08T02:37:49;58.00;55.15;61.19;;
73663;Laerm;61956;52.540;13.382;2023-04-08T02:40:27;57.33;55.06;61.45;;
73663;Laerm;61956;52.540;13.382;2023-04-08T02:42:59;57.28;55.17;60.14;;
73663;Laerm;61956;52.540;13.382;2023-04-08T02:45:31;57.17;54.64;60.19;;
73663;Laerm;61956;52.540;13.382;2023-04-08T02:48:01;57.25;54.81;60.74;;
73663;Laerm;61956;52.540;13.382;2023-04-08T02:50:31;57.36;54.94;61.31;;
73663;Laerm;61956;52.540;13.382;2023-04-08T02:53:00;57.42;55.02;60.57;;
73663;Laerm;61956;52.540;13.382;2023-04-08T02:55:31;57.63;55.10;60.57;;
73663;Laerm;61956;52.540;13.382;2023-04-08T02:58:03;57.87;55.17;61.48;;
73663;Laerm;61956;52.540;13.382;2023-04-08T03:00:33;57.99;55.33;61.25;;
73663;Laerm;61956;52.540;13.382;2023-04-08T03:03:02;58.48;55.37;61.92;;
73663;Laerm;61956;52.540;13.382;2023-04-08T03:05:31;58.07;55.02;72.42;;
73663;Laerm;61956;52.540;13.382;2023-04-08T03:08:01;57.07;54.90;68.90;;
73663;Laerm;61956;52.540;13.382;2023-04-08T03:10:31;56.45;54.61;59.02;;
73663;Laerm;61956;52.540;13.382;2023-04-08T03:13:03;57.89;54.68;72.81;;
73663;Laerm;61956;52.540;13.382;2023-04-08T03:15:32;56.74;54.78;59.56;;
73663;Laerm;61956;52.540;13.382;2023-04-08T03:18:03;59.83;54.17;73.03;;
73663;Laerm;61956;52.540;13.382;2023-04-08T03:20:33;58.92;51.25;73.85;;
73663;Laerm;61956;52.540;13.382;2023-04-08T03:23:02;65.94;51.34;75.73;;
73663;Laerm;61956;52.540;13.382;2023-04-08T03:25:31;64.31;54.06;73.75;;
73663;Laerm;61956;52.540;13.382;2023-04-08T03:28:03;62.66;53.88;73.73;;
73663;Laerm;61956;52.540;13.382;2023-04-08T03:30:32;56.08;54.25;60.35;;
73663;Laerm;61956;52.540;13.382;2023-04-08T03:33:01;58.31;54.17;73.32;;
73663;Laerm;61956;52.540;13.382;2023-04-08T03:35:33;56.96;54.48;72.58;;
73663;Laerm;61956;52.540;13.382;2023-04-08T03:38:02;57.02;54.61;63.47;;
73663;Laerm;61956;52.540;13.382;2023-04-08T03:40:31;57.69;57.69;57.69;;
73663;Laerm;61956;52.540;13.382;2023-04-08T03:43:03;59.52;54.58;73.18;;
73663;Laerm;61956;52.540;13.382;2023-04-08T03:45:34;71.01;55.35;74.48;;
73663;Laerm;61956;52.540;13.382;2023-04-08T03:50:33;63.22;57.79;75.19;;
73663;Laerm;61956;52.540;13.382;2023-04-08T03:53:02;62.31;57.61;74.35;;
73663;Laerm;61956;52.540;13.382;2023-04-08T03:55:31;62.00;52.33;71.28;;
73663;Laerm;61956;52.540;13.382;2023-04-08T03:58:04;62.02;57.46;67.34;;
73663;Laerm;61956;52.540;13.382;2023-04-08T04:00:34;67.82;52.71;77.06;;
73663;Laerm;61956;52.540;13.382;2023-04-08T04:03:04;62.04;52.50;75.33;;
73663;Laerm;61956;52.540;13.382;2023-04-08T04:05:34;55.82;52.71;72.23;;
73663;Laerm;61956;52.540;13.382;2023-04-08T04:08:03;56.01;52.40;71.24;;
73663;Laerm;61956;52.540;13.382;2023-04-08T04:10:34;55.54;52.39;72.28;;
73663;Laerm;61956;52.540;13.382;2023-04-08T04:13:06;55.18;52.57;61.68;;
73663;Laerm;61956;52.540;13.382;2023-04-08T04:15:37;55.18;52.55;62.95;;
73663;Laerm;61956;52.540;13.382;2023-04-08T04:18:10;54.94;52.56;61.82;;
73663;Laerm;61956;52.540;13.382;2023-04-08T04:20:40;56.15;52.47;65.86;;
73663;Laerm;61956;52.540;13.382;2023-04-08T04:23:09;54.96;52.48;61.05;;
73663;Laerm;61956;52.540;13.382;2023-04-08T04:25:40;56.05;52.60;67.87;;
73663;Laerm;61956;52.540;13.382;2023-04-08T04:28:12;55.03;52.61;60.70;;
73663;Laerm;61956;52.540;13.382;2023-04-08T04:30:41;55.07;52.97;61.54;;
73663;Laerm;61956;52.540;13.382;2023-04-08T04:33:11;55.28;53.01;65.14;;
73663;Laerm;61956;52.540;13.382;2023-04-08T04:35:40;58.38;53.08;71.28;;
73663;Laerm;61956;52.540;13.382;2023-04-08T04:38:09;58.49;53.05;78.63;;
73663;Laerm;61956;52.540;13.382;2023-04-08T04:40:38;57.22;52.82;66.95;;
73663;Laerm;61956;52.540;13.382;2023-04-08T04:43:12;54.85;52.98;63.34;;
73663;Laerm;61956;52.540;13.382;2023-04-08T04:45:41;54.86;53.18;60.37;;
73663;Laerm;61956;52.540;13.382;2023-04-08T04:48:10;54.96;53.52;56.65;;
73663;Laerm;61956;52.540;13.382;2023-04-08T04:50:39;55.27;53.60;59.13;;
73663;Laerm;61956;52.540;13.382;2023-04-08T04:53:08;55.28;53.18;59.52;;
73663;Laerm;61956;52.540;13.382;2023-04-08T04:55:37;55.12;53.08;56.99;;
73663;Laerm;61956;52.540;13.382;2023-04-08T04:58:07;55.26;53.43;58.90;;
73663;Laerm;61956;52.540;13.382;2023-04-08T05:00:38;55.29;53.42;60.99;;
73663;Laerm;61956;52.540;13.382;2023-04-08T05:03:10;55.43;53.55;59.33;;
73663;Laerm;61956;52.540;13.382;2023-04-08T05:05:39;55.28;53.60;59.05;;
73663;Laerm;61956;52.540;13.382;2023-04-08T05:08:08;55.54;53.57;62.45;;
73663;Laerm;61956;52.540;13.382;2023-04-08T05:10:40;55.75;53.51;61.39;;
73663;Laerm;61956;52.540;13.382;2023-04-08T05:13:09;55.64;53.75;61.50;;
73663;Laerm;61956;52.540;13.382;2023-04-08T05:15:41;55.31;53.70;58.60;;
73663;Laerm;61956;52.540;13.382;2023-04-08T05:18:11;55.43;53.61;65.76;;
73663;Laerm;61956;52.540;13.382;2023-04-08T05:20:40;55.42;53.55;61.11;;
73663;Laerm;61956;52.540;13.382;2023-04-08T05:23:10;55.17;53.46;57.31;;
73663;Laerm;61956;52.540;13.382;2023-04-08T05:25:39;55.19;53.31;56.96;;
73663;Laerm;61956;52.540;13.382;2023-04-08T05:28:08;55.24;53.62;57.34;;
73663;Laerm;61956;52.540;13.382;2023-04-08T05:30:38;55.48;53.62;57.46;;
73663;Laerm;61956;52.540;13.382;2023-04-08T05:33:09;55.57;53.84;57.40;;
73663;Laerm;61956;52.540;13.382;2023-04-08T05:35:38;55.56;54.10;59.06;;
73663;Laerm;61956;52.540;13.382;2023-04-08T05:38:08;55.53;53.61;58.43;;
73663;Laerm;61956;52.540;13.382;2023-04-08T05:40:37;55.65;53.38;59.29;;
73663;Laerm;61956;52.540;13.382;2023-04-08T05:43:06;55.88;53.80;59.51;;
73663;Laerm;61956;52.540;13.382;2023-04-08T05:45:37;56.24;53.64;70.54;;
73663;Laerm;61956;52.540;13.382;2023-04-08T05:48:09;55.62;53.34;61.38;;
73663;Laerm;61956;52.540;13.382;2023-04-08T05:50:38;55.60;53.52;59.81;;
73663;Laerm;61956;52.540;13.382;2023-04-08T05:53:08;55.80;53.86;64.91;;
73663;Laerm;61956;52.540;13.382;2023-04-08T05:55:37;55.90;54.04;62.75;;
73663;Laerm;61956;52.540;13.382;2023-04-08T05:58:07;56.09;53.90;63.40;;
73663;Laerm;61956;52.540;13.382;2023-04-08T06:00:36;55.75;53.81;62.69;;
73663;Laerm;61956;52.540;13.382;2023-04-08T06:03:05;56.04;53.75;61.64;;
73663;Laerm;61956;52.540;13.382;2023-04-08T06:05:37;56.24;53.94;64.66;;
73663;Laerm;61956;52.540;13.382;2023-04-08T06:08:06;55.81;53.78;65.84;;
73663;Laerm;61956;52.540;13.382;2023-04-08T06:10:35;55.78;54.00;60.84;;
73663;Laerm;61956;52.540;13.382;2023-04-08T06:13:05;55.70;53.79;59.83;;
73663;Laerm;61956;52.540;13.382;2023-04-08T06:15:34;55.79;53.66;59.86;;
73663;Laerm;61956;52.540;13.382;2023-04-08T06:18:03;55.81;53.82;60.50;;
73663;Laerm;61956;52.540;13.382;2023-04-08T06:20:32;55.94;54.06;61.91;;
73663;Laerm;61956;52.540;13.382;2023-04-08T06:23:04;56.53;54.18;63.59;;
73663;Laerm;61956;52.540;13.382;2023-04-08T06:25:33;56.21;53.97;63.92;;
73663;Laerm;61956;52.540;13.382;2023-04-08T06:28:02;56.25;53.95;66.52;;
73663;Laerm;61956;52.540;13.382;2023-04-08T06:30:32;55.74;53.60;61.20;;
73663;Laerm;61956;52.540;13.382;2023-04-08T06:33:01;55.50;53.95;58.06;;
73663;Laerm;61956;52.540;13.382;2023-04-08T06:35:30;55.60;53.86;57.84;;
73663;Laerm;61956;52.540;13.382;2023-04-08T06:37:59;55.60;53.99;58.08;;
73663;Laerm;61956;52.540;13.382;2023-04-08T06:40:31;55.71;53.69;60.11;;
73663;Laerm;61956;52.540;13.382;2023-04-08T06:43:00;55.90;53.93;64.38;;
73663;Laerm;61956;52.540;13.382;2023-04-08T06:45:36;56.70;54.21;66.90;;
73663;Laerm;61956;52.540;13.382;2023-04-08T06:48:08;55.82;54.22;64.57;;
73663;Laerm;61956;52.540;13.382;2023-04-08T06:50:37;55.65;54.20;57.74;;
73663;Laerm;61956;52.540;13.382;2023-04-08T06:53:06;55.76;54.22;61.42;;
73663;Laerm;61956;52.540;13.382;2023-04-08T06:55:38;55.62;54.34;58.34;;
73663;Laerm;61956;52.540;13.382;2023-04-08T06:58:07;55.64;54.17;57.40;;
73663;Laerm;61956;52.540;13.382;2023-04-08T07:00:36;55.84;54.13;58.10;;
73663;Laerm;61956;52.540;13.382;2023-04-08T07:03:05;56.45;53.96;65.15;;
73663;Laerm;61956;52.540;13.382;2023-04-08T07:05:36;56.17;53.83;65.11;;
73663;Laerm;61956;52.540;13.382;2023-04-08T07:08:07;56.56;54.16;66.05;;
73663;Laerm;61956;52.540;13.382;2023-04-08T07:10:39;56.58;53.97;66.44;;
73663;Laerm;61956;52.540;13.382;2023-04-08T07:13:08;55.91;53.88;61.03;;
73663;Laerm;61956;52.540;13.382;2023-04-08T07:15:38;56.04;54.15;58.95;;
73663;Laerm;61956;52.540;13.382;2023-04-08T07:18:07;55.92;53.99;58.12;;
73663;Laerm;61956;52.540;13.382;2023-04-08T07:20:37;56.09;53.98;59.17;;
73663;Laerm;61956;52.540;13.382;2023-04-08T07:23:07;55.96;53.82;58.34;;
73663;Laerm;61956;52.540;13.382;2023-04-08T07:25:39;56.06;53.64;58.57;;
73663;Laerm;61956;52.540;13.382;2023-04-08T07:28:08;56.47;53.85;61.71;;
73663;Laerm;61956;52.540;13.382;2023-04-08T07:30:37;55.99;53.58;58.40;;
73663;Laerm;61956;52.540;13.382;2023-04-08T07:33:06;55.88;53.70;58.80;;
73663;Laerm;61956;52.540;13.382;2023-04-08T07:35:39;55.79;53.57;59.44;;
73663;Laerm;61956;52.540;13.382;2023-04-08T07:38:08;55.93;53.62;59.46;;
73663;Laerm;61956;52.540;13.382;2023-04-08T07:40:41;56.60;53.77;66.53;;
73663;Laerm;61956;52.540;13.382;2023-04-08T07:43:10;55.89;53.96;63.95;;
73663;Laerm;61956;52.540;13.382;2023-04-08T07:45:39;56.44;53.68;65.31;;
73663;Laerm;61956;52.540;13.382;2023-04-08T07:48:08;56.36;54.13;62.59;;
73663;Laerm;61956;52.540;13.382;2023-04-08T07:50:37;56.48;54.13;63.68;;
73663;Laerm;61956;52.540;13.382;2023-04-08T07:53:07;55.75;53.86;60.40;;
73663;Laerm;61956;52.540;13.382;2023-04-08T07:55:36;55.71;54.03;57.85;;
73663;Laerm;61956;52.540;13.382;2023-04-08T07:58:08;55.74;54.14;57.92;;
73663;Laerm;61956;52.540;13.382;2023-04-08T08:00:39;56.04;53.49;66.09;;
73663;Laerm;61956;52.540;13.382;2023-04-08T08:03:08;56.25;53.90;63.24;;
73663;Laerm;61956;52.540;13.382;2023-04-08T08:05:37;55.69;53.92;62.66;;
73663;Laerm;61956;52.540;13.382;2023-04-08T08:08:06;55.60;54.08;58.53;;
73663;Laerm;61956;52.540;13.382;2023-04-08T08:10:38;56.01;54.10;64.55;;
73663;Laerm;61956;52.540;13.382;2023-04-08T08:13:10;55.54;54.08;57.58;;
73663;Laerm;61956;52.540;13.382;2023-04-08T08:15:42;55.88;53.85;63.96;;
73663;Laerm;61956;52.540;13.382;2023-04-08T08:18:11;55.95;54.00;65.24;;
73663;Laerm;61956;52.540;13.382;2023-04-08T08:20:41;55.81;54.04;62.52;;
73663;Laerm;61956;52.540;13.382;2023-04-08T08:23:10;55.85;54.00;65.50;;
73663;Laerm;61956;52.540;13.382;2023-04-08T08:25:39;55.63;53.82;60.80;;
73663;Laerm;61956;52.540;13.382;2023-04-08T08:28:11;55.50;54.17;57.48;;
73663;Laerm;61956;52.540;13.382;2023-04-08T08:30:41;55.46;53.95;64.12;;
73663;Laerm;61956;52.540;13.382;2023-04-08T08:33:10;55.35;53.58;62.46;;
73663;Laerm;61956;52.540;13.382;2023-04-08T08:35:39;55.22;53.57;60.95;;
73663;Laerm;61956;52.540;13.382;2023-04-08T08:38:08;55.33;53.69;57.24;;
73663;Laerm;61956;52.540;13.382;2023-04-08T08:40:38;55.60;53.66;61.09;;
73663;Laerm;61956;52.540;13.382;2023-04-08T08:43:11;55.41;53.80;57.76;;
73663;Laerm;61956;52.540;13.382;2023-04-08T08:45:41;55.46;53.84;59.03;;
73663;Laerm;61956;52.540;13.382;2023-04-08T08:48:10;55.47;53.58;59.37;;
73663;Laerm;61956;52.540;13.382;2023-04-08T08:50:40;56.33;53.81;68.81;;
73663;Laerm;61956;52.540;13.382;2023-04-08T08:53:09;56.36;53.49;63.22;;
73663;Laerm;61956;52.540;13.382;2023-04-08T08:55:38;55.72;53.83;62.34;;
73663;Laerm;61956;52.540;13.382;2023-04-08T08:58:07;55.42;53.72;57.09;;
73663;Laerm;61956;52.540;13.382;2023-04-08T09:00:41;55.55;53.72;59.75;;
73663;Laerm;61956;52.540;13.382;2023-04-08T09:03:15;55.58;53.61;59.68;;
73663;Laerm;61956;52.540;13.382;2023-04-08T09:05:53;55.74;53.44;62.62;;
73663;Laerm;61956;52.540;13.382;2023-04-08T09:08:30;55.53;53.44;61.64;;
73663;Laerm;61956;52.540;13.382;2023-04-08T09:11:14;58.00;53.61;78.20;;
73663;Laerm;61956;52.540;13.382;2023-04-08T09:13:44;55.57;53.85;68.91;;
73663;Laerm;61956;52.540;13.382;2023-04-08T09:16:18;55.50;53.52;60.16;;
73663;Laerm;61956;52.540;13.382;2023-04-08T09:18:48;55.45;53.27;67.67;;
73663;Laerm;61956;52.540;13.382;2023-04-08T09:21:22;55.40;53.77;56.74;;
73663;Laerm;61956;52.540;13.382;2023-04-08T09:23:52;55.65;53.88;61.31;;
73663;Laerm;61956;52.540;13.382;2023-04-08T09:26:23;55.45;53.88;57.42;;
73663;Laerm;61956;52.540;13.382;2023-04-08T09:29:01;55.45;53.76;57.29;;
73663;Laerm;61956;52.540;13.382;2023-04-08T09:31:35;55.56;53.71;64.55;;
73663;Laerm;61956;52.540;13.382;2023-04-08T09:34:11;55.96;53.79;64.02;;
73663;Laerm;61956;52.540;13.382;2023-04-08T09:36:41;55.90;53.81;64.57;;
73663;Laerm;61956;52.540;13.382;2023-04-08T09:39:11;55.47;53.79;57.70;;
73663;Laerm;61956;52.540;13.382;2023-04-08T09:41:42;55.48;53.87;59.91;;
73663;Laerm;61956;52.540;13.382;2023-04-08T09:44:11;55.41;53.77;58.02;;
73663;Laerm;61956;52.540;13.382;2023-04-08T09:46:59;55.51;53.54;57.59;;
73663;Laerm;61956;52.540;13.382;2023-04-08T09:49:37;55.48;53.77;57.41;;
73663;Laerm;61956;52.540;13.382;2023-04-08T09:52:12;55.47;53.76;58.79;;
73663;Laerm;61956;52.540;13.382;2023-04-08T09:54:52;55.74;53.67;65.94;;
73663;Laerm;61956;52.540;13.382;2023-04-08T09:57:42;55.68;53.75;59.91;;
73663;Laerm;61956;52.540;13.382;2023-04-08T10:00:14;56.02;53.83;65.03;;
73663;Laerm;61956;52.540;13.382;2023-04-08T10:02:55;55.48;53.73;57.74;;
73663;Laerm;61956;52.540;13.382;2023-04-08T10:05:30;55.67;53.96;65.54;;
73663;Laerm;61956;52.540;13.382;2023-04-08T10:07:59;55.47;53.79;57.35;;
73663;Laerm;61956;52.540;13.382;2023-04-08T10:10:29;56.03;53.74;62.92;;
73663;Laerm;61956;52.540;13.382;2023-04-08T10:12:58;55.88;53.84;63.39;;
73663;Laerm;61956;52.540;13.382;2023-04-08T10:15:29;55.71;53.73;63.89;;
73663;Laerm;61956;52.540;13.382;2023-04-08T10:18:31;55.93;53.55;66.50;;
73663;Laerm;61956;52.540;13.382;2023-04-08T10:21:02;55.76;53.82;67.15;;
73663;Laerm;61956;52.540;13.382;2023-04-08T10:23:56;55.49;53.81;62.73;;
73663;Laerm;61956;52.540;13.382;2023-04-08T10:26:33;55.58;53.66;58.46;;
73663;Laerm;61956;52.540;13.382;2023-04-08T10:29:41;55.53;53.52;58.78;;
73663;Laerm;61956;52.540;13.382;2023-04-08T10:32:27;55.70;53.59;60.10;;
73663;Laerm;61956;52.540;13.382;2023-04-08T10:34:59;55.50;53.63;58.42;;
73663;Laerm;61956;52.540;13.382;2023-04-08T10:37:29;55.40;53.48;57.68;;
73663;Laerm;61956;52.540;13.382;2023-04-08T10:39:58;55.40;53.25;61.12;;
73663;Laerm;61956;52.540;13.382;2023-04-08T10:42:27;55.77;53.64;63.75;;
73663;Laerm;61956;52.540;13.382;2023-04-08T10:45:00;56.23;53.66;68.55;;
73663;Laerm;61956;52.540;13.382;2023-04-08T10:47:30;55.39;53.62;57.83;;
73663;Laerm;61956;52.540;13.382;2023-04-08T10:50:12;55.40;53.68;57.79;;
73663;Laerm;61956;52.540;13.382;2023-04-08T10:52:48;55.48;53.44;57.69;;
73663;Laerm;61956;52.540;13.382;2023-04-08T10:55:22;55.66;53.54;60.24;;
73663;Laerm;61956;52.540;13.382;2023-04-08T10:57:52;55.59;53.62;58.59;;
73663;Laerm;61956;52.540;13.382;2023-04-08T11:00:33;55.94;53.35;65.08;;
73663;Laerm;61956;52.540;13.382;2023-04-08T11:03:04;55.97;53.45;66.63;;
73663;Laerm;61956;52.540;13.382;2023-04-08T11:05:37;55.41;53.48;58.37;;
73663;Laerm;61956;52.540;13.382;2023-04-08T11:08:07;55.58;53.33;59.07;;
73663;Laerm;61956;52.540;13.382;2023-04-08T11:10:37;55.47;53.46;57.69;;
73663;Laerm;61956;52.540;13.382;2023-04-08T11:13:07;55.41;53.35;57.59;;
73663;Laerm;61956;52.540;13.382;2023-04-08T11:15:38;55.43;53.29;58.91;;
73663;Laerm;61956;52.540;13.382;2023-04-08T11:18:07;55.51;53.45;59.25;;
73663;Laerm;61956;52.540;13.382;2023-04-08T11:20:40;55.42;53.57;58.58;;
73663;Laerm;61956;52.540;13.382;2023-04-08T11:23:12;55.48;53.28;60.79;;
73663;Laerm;61956;52.540;13.382;2023-04-08T11:25:43;55.57;53.32;58.82;;
73663;Laerm;61956;52.540;13.382;2023-04-08T11:28:13;55.66;53.23;63.61;;
73663;Laerm;61956;52.540;13.382;2023-04-08T11:30:43;55.44;53.43;57.81;;
73663;Laerm;61956;52.540;13.382;2023-04-08T11:33:13;55.67;53.43;61.55;;
73663;Laerm;61956;52.540;13.382;2023-04-08T11:35:45;55.95;53.64;65.55;;
73663;Laerm;61956;52.540;13.382;2023-04-08T11:38:14;55.74;53.49;66.11;;
73663;Laerm;61956;52.540;13.382;2023-04-08T11:40:52;55.76;53.40;65.97;;
73663;Laerm;61956;52.540;13.382;2023-04-08T11:43:22;55.39;53.30;57.09;;
73663;Laerm;61956;52.540;13.382;2023-04-08T11:45:54;55.53;53.30;67.33;;
73663;Laerm;61956;52.540;13.382;2023-04-08T11:48:24;56.03;53.47;66.98;;
73663;Laerm;61956;52.540;13.382;2023-04-08T11:51:05;55.72;53.48;58.66;;
73663;Laerm;61956;52.540;13.382;2023-04-08T11:53:37;55.64;53.60;59.67;;
73663;Laerm;61956;52.540;13.382;2023-04-08T11:56:17;55.70;53.33;58.35;;
73663;Laerm;61956;52.540;13.382;2023-04-08T11:58:47;55.57;53.31;59.91;;
73663;Laerm;61956;52.540;13.382;2023-04-08T12:01:17;55.58;53.42;58.75;;
73663;Laerm;61956;52.540;13.382;2023-04-08T12:03:58;55.64;53.65;58.50;;
73663;Laerm;61956;52.540;13.382;2023-04-08T12:06:30;55.71;53.40;58.00;;
73663;Laerm;61956;52.540;13.382;2023-04-08T12:08:59;55.70;53.39;63.81;;
73663;Laerm;61956;52.540;13.382;2023-04-08T12:11:28;55.84;53.37;63.49;;
73663;Laerm;61956;52.540;13.382;2023-04-08T12:13:58;55.49;53.27;60.50;;
73663;Laerm;61956;52.540;13.382;2023-04-08T12:16:27;55.82;53.31;61.34;;
73663;Laerm;61956;52.540;13.382;2023-04-08T12:18:56;55.60;53.54;61.08;;
73663;Laerm;61956;52.540;13.382;2023-04-08T12:21:26;55.60;53.54;61.08;;
73663;Laerm;61956;52.540;13.382;2023-04-08T12:23:58;56.00;53.43;63.69;;
73663;Laerm;61956;52.540;13.382;2023-04-08T12:26:27;61.45;53.41;79.66;;
73663;Laerm;61956;52.540;13.382;2023-04-08T12:28:56;56.55;53.34;75.14;;
73663;Laerm;61956;52.540;13.382;2023-04-08T12:31:25;55.70;53.22;61.69;;
73663;Laerm;61956;52.540;13.382;2023-04-08T12:33:55;55.49;53.35;60.40;;
73663;Laerm;61956;52.540;13.382;2023-04-08T12:36:24;55.96;53.57;66.32;;
73663;Laerm;61956;52.540;13.382;2023-04-08T12:38:56;55.60;53.29;58.94;;
73663;Laerm;61956;52.540;13.382;2023-04-08T12:41:25;55.57;53.62;58.21;;
73663;Laerm;61956;52.540;13.382;2023-04-08T12:43:55;55.67;53.52;59.11;;
73663;Laerm;61956;52.540;13.382;2023-04-08T12:46:24;55.69;53.09;64.01;;
73663;Laerm;61956;52.540;13.382;2023-04-08T12:48:53;55.74;53.57;66.27;;
73663;Laerm;61956;52.540;13.382;2023-04-08T12:51:22;55.87;53.65;61.83;;
73663;Laerm;61956;52.540;13.382;2023-04-08T12:53:52;55.74;53.52;59.30;;
73663;Laerm;61956;52.540;13.382;2023-04-08T12:56:24;55.88;53.69;61.60;;
